sensor_id;sensor_type;location;lat;lon;timestamp;P1;durP1;ratioP1;P2;durP2;ratioP2
50671;SDS011;46021;55.882;37.654;2022-09-09T00:00:40;4.47;;;2.50;;
50671;SDS011;46021;55.882;37.654;2022-09-09T00:03:13;6.70;;;2.53;;
50671;SDS011;46021;55.882;37.654;2022-09-09T00:05:44;4.40;;;2.60;;
50671;SDS011;46021;55.882;37.654;2022-09-09T00:08:19;4.55;;;2.20;;
50671;SDS011;46021;55.882;37.654;2022-09-09T00:10:48;4.93;;;2.63;;
50671;SDS011;46021;55.882;37.654;2022-09-09T00:13:25;6.45;;;2.50;;
50671;SDS011;46021;55.882;37.654;2022-09-09T00:15:59;5.13;;;2.40;;
50671;SDS011;46021;55.882;37.654;2022-09-09T00:18:31;5.68;;;2.50;;
50671;SDS011;46021;55.882;37.654;2022-09-09T00:21:06;6.38;;;2.75;;
50671;SDS011;46021;55.882;37.654;2022-09-09T00:23:37;4.85;;;2.50;;
50671;SDS011;46021;55.882;37.654;2022-09-09T00:28:36;2.90;;;1.45;;
50671;SDS011;46021;55.882;37.654;2022-09-09T00:31:10;5.03;;;2.65;;
50671;SDS011;46021;55.882;37.654;2022-09-09T00:33:39;4.38;;;2.50;;
50671;SDS011;46021;55.882;37.654;2022-09-09T00:36:09;9.07;;;5.35;;
50671;SDS011;46021;55.882;37.654;2022-09-09T00:38:40;3.28;;;1.35;;
50671;SDS011;46021;55.882;37.654;2022-09-09T00:41:11;5.15;;;2.85;;
50671;SDS011;46021;55.882;37.654;2022-09-09T00:43:46;5.22;;;2.80;;
50671;SDS011;46021;55.882;37.654;2022-09-09T00:46:27;5.72;;;2.60;;
50671;SDS011;46021;55.882;37.654;2022-09-09T00:49:09;4.00;;;2.35;;
50671;SDS011;46021;55.882;37.654;2022-09-09T00:54:23;3.33;;;1.67;;
50671;SDS011;46021;55.882;37.654;2022-09-09T00:57:02;5.30;;;2.42;;
50671;SDS011;46021;55.882;37.654;2022-09-09T00:59:42;3.90;;;2.22;;
50671;SDS011;46021;55.882;37.654;2022-09-09T01:02:13;4.53;;;2.33;;
50671;SDS011;46021;55.882;37.654;2022-09-09T01:04:48;5.65;;;2.40;;
50671;SDS011;46021;55.882;37.654;2022-09-09T01:07:16;4.63;;;2.55;;
50671;SDS011;46021;55.882;37.654;2022-09-09T01:09:51;3.97;;;1.63;;
50671;SDS011;46021;55.882;37.654;2022-09-09T01:12:26;3.85;;;2.38;;
50671;SDS011;46021;55.882;37.654;2022-09-09T01:15:03;2.75;;;1.90;;
50671;SDS011;46021;55.882;37.654;2022-09-09T01:17:40;7.18;;;1.30;;
50671;SDS011;46021;55.882;37.654;2022-09-09T01:20:17;4.95;;;2.30;;
50671;SDS011;46021;55.882;37.654;2022-09-09T01:22:57;4.40;;;1.83;;
50671;SDS011;46021;55.882;37.654;2022-09-09T01:26:02;1.85;;;1.15;;
50671;SDS011;46021;55.882;37.654;2022-09-09T01:28:38;4.07;;;2.53;;
50671;SDS011;46021;55.882;37.654;2022-09-09T01:31:13;4.78;;;2.33;;
50671;SDS011;46021;55.882;37.654;2022-09-09T01:33:45;3.60;;;2.13;;
50671;SDS011;46021;55.882;37.654;2022-09-09T01:36:13;4.07;;;1.30;;
50671;SDS011;46021;55.882;37.654;2022-09-09T01:38:49;4.28;;;2.30;;
50671;SDS011;46021;55.882;37.654;2022-09-09T01:41:18;12.70;;;1.88;;
50671;SDS011;46021;55.882;37.654;2022-09-09T01:44:05;5.20;;;2.58;;
50671;SDS011;46021;55.882;37.654;2022-09-09T01:46:35;4.65;;;2.45;;
50671;SDS011;46021;55.882;37.654;2022-09-09T01:49:03;2.03;;;1.02;;
50671;SDS011;46021;55.882;37.654;2022-09-09T01:51:32;9.73;;;1.85;;
50671;SDS011;46021;55.882;37.654;2022-09-09T01:54:03;3.80;;;1.30;;
50671;SDS011;46021;55.882;37.654;2022-09-09T01:56:34;5.07;;;2.20;;
50671;SDS011;46021;55.882;37.654;2022-09-09T01:59:11;7.87;;;1.90;;
50671;SDS011;46021;55.882;37.654;2022-09-09T02:02:01;3.38;;;1.70;;
50671;SDS011;46021;55.882;37.654;2022-09-09T02:04:36;6.53;;;1.58;;
50671;SDS011;46021;55.882;37.654;2022-09-09T02:07:21;4.25;;;2.45;;
50671;SDS011;46021;55.882;37.654;2022-09-09T02:10:00;4.32;;;2.40;;
50671;SDS011;46021;55.882;37.654;2022-09-09T02:12:32;6.78;;;2.72;;
50671;SDS011;46021;55.882;37.654;2022-09-09T02:15:01;3.20;;;1.80;;
50671;SDS011;46021;55.882;37.654;2022-09-09T02:17:40;6.30;;;2.88;;
50671;SDS011;46021;55.882;37.654;2022-09-09T02:20:14;4.32;;;1.60;;
50671;SDS011;46021;55.882;37.654;2022-09-09T02:22:49;6.38;;;2.55;;
50671;SDS011;46021;55.882;37.654;2022-09-09T02:25:19;4.47;;;2.58;;
50671;SDS011;46021;55.882;37.654;2022-09-09T02:27:49;3.95;;;2.50;;
50671;SDS011;46021;55.882;37.654;2022-09-09T02:30:17;2.53;;;1.33;;
50671;SDS011;46021;55.882;37.654;2022-09-09T02:32:50;5.13;;;1.65;;
50671;SDS011;46021;55.882;37.654;2022-09-09T02:35:25;3.72;;;2.30;;
50671;SDS011;46021;55.882;37.654;2022-09-09T02:37:54;2.40;;;1.17;;
50671;SDS011;46021;55.882;37.654;2022-09-09T02:40:25;6.47;;;2.90;;
50671;SDS011;46021;55.882;37.654;2022-09-09T02:43:00;7.43;;;1.38;;
50671;SDS011;46021;55.882;37.654;2022-09-09T02:45:31;5.22;;;2.58;;
50671;SDS011;46021;55.882;37.654;2022-09-09T02:48:04;2.53;;;1.30;;
50671;SDS011;46021;55.882;37.654;2022-09-09T02:50:38;2.92;;;1.95;;
50671;SDS011;46021;55.882;37.654;2022-09-09T02:53:12;6.53;;;1.10;;
50671;SDS011;46021;55.882;37.654;2022-09-09T02:55:46;7.85;;;4.18;;
50671;SDS011;46021;55.882;37.654;2022-09-09T02:58:17;5.65;;;1.98;;
50671;SDS011;46021;55.882;37.654;2022-09-09T03:00:52;5.00;;;2.85;;
50671;SDS011;46021;55.882;37.654;2022-09-09T03:03:19;4.25;;;1.73;;
50671;SDS011;46021;55.882;37.654;2022-09-09T03:05:49;1.90;;;1.13;;
50671;SDS011;46021;55.882;37.654;2022-09-09T03:08:16;2.28;;;1.23;;
50671;SDS011;46021;55.882;37.654;2022-09-09T03:10:44;2.55;;;1.50;;
50671;SDS011;46021;55.882;37.654;2022-09-09T03:13:13;5.50;;;2.90;;
50671;SDS011;46021;55.882;37.654;2022-09-09T03:15:42;7.20;;;1.63;;
50671;SDS011;46021;55.882;37.654;2022-09-09T03:18:13;3.90;;;2.42;;
50671;SDS011;46021;55.882;37.654;2022-09-09T03:20:41;2.58;;;1.52;;
50671;SDS011;46021;55.882;37.654;2022-09-09T03:23:09;8.80;;;1.70;;
50671;SDS011;46021;55.882;37.654;2022-09-09T03:25:36;3.05;;;1.63;;
50671;SDS011;46021;55.882;37.654;2022-09-09T03:28:04;2.78;;;1.27;;
50671;SDS011;46021;55.882;37.654;2022-09-09T03:30:30;4.32;;;1.52;;
50671;SDS011;46021;55.882;37.654;2022-09-09T03:32:58;6.10;;;2.78;;
50671;SDS011;46021;55.882;37.654;2022-09-09T03:35:29;9.30;;;2.22;;
50671;SDS011;46021;55.882;37.654;2022-09-09T03:37:56;3.75;;;1.55;;
50671;SDS011;46021;55.882;37.654;2022-09-09T03:40:23;5.30;;;2.40;;
50671;SDS011;46021;55.882;37.654;2022-09-09T03:42:49;6.22;;;2.60;;
50671;SDS011;46021;55.882;37.654;2022-09-09T03:45:16;4.20;;;2.60;;
50671;SDS011;46021;55.882;37.654;2022-09-09T03:47:43;12.35;;;2.33;;
50671;SDS011;46021;55.882;37.654;2022-09-09T03:50:10;4.50;;;2.20;;
50671;SDS011;46021;55.882;37.654;2022-09-09T03:52:42;5.63;;;2.20;;
50671;SDS011;46021;55.882;37.654;2022-09-09T03:55:15;3.85;;;2.17;;
50671;SDS011;46021;55.882;37.654;2022-09-09T03:57:42;7.57;;;2.45;;
50671;SDS011;46021;55.882;37.654;2022-09-09T04:00:09;3.25;;;1.90;;
50671;SDS011;46021;55.882;37.654;2022-09-09T04:02:42;4.65;;;2.20;;
50671;SDS011;46021;55.882;37.654;2022-09-09T04:05:13;3.05;;;1.80;;
50671;SDS011;46021;55.882;37.654;2022-09-09T04:07:42;7.60;;;2.30;;
50671;SDS011;46021;55.882;37.654;2022-09-09T04:10:08;2.92;;;1.75;;
50671;SDS011;46021;55.882;37.654;2022-09-09T04:12:38;8.63;;;2.00;;
50671;SDS011;46021;55.882;37.654;2022-09-09T04:15:05;4.05;;;1.77;;
50671;SDS011;46021;55.882;37.654;2022-09-09T04:17:34;3.13;;;1.70;;
50671;SDS011;46021;55.882;37.654;2022-09-09T04:20:02;6.32;;;2.35;;
50671;SDS011;46021;55.882;37.654;2022-09-09T04:22:30;4.78;;;1.75;;
50671;SDS011;46021;55.882;37.654;2022-09-09T04:24:58;3.03;;;1.80;;
50671;SDS011;46021;55.882;37.654;2022-09-09T04:27:25;6.28;;;1.50;;
50671;SDS011;46021;55.882;37.654;2022-09-09T04:29:53;2.88;;;1.73;;
50671;SDS011;46021;55.882;37.654;2022-09-09T04:32:23;3.17;;;1.45;;
50671;SDS011;46021;55.882;37.654;2022-09-09T04:34:52;6.18;;;1.73;;
50671;SDS011;46021;55.882;37.654;2022-09-09T04:37:19;3.43;;;1.10;;
50671;SDS011;46021;55.882;37.654;2022-09-09T04:39:46;1.75;;;1.10;;
50671;SDS011;46021;55.882;37.654;2022-09-09T04:42:12;1.90;;;1.00;;
50671;SDS011;46021;55.882;37.654;2022-09-09T04:44:39;1.57;;;0.93;;
50671;SDS011;46021;55.882;37.654;2022-09-09T04:47:07;2.10;;;1.17;;
50671;SDS011;46021;55.882;37.654;2022-09-09T04:49:35;2.28;;;1.15;;
50671;SDS011;46021;55.882;37.654;2022-09-09T04:52:02;2.25;;;1.00;;
50671;SDS011;46021;55.882;37.654;2022-09-09T04:54:30;5.25;;;1.35;;
50671;SDS011;46021;55.882;37.654;2022-09-09T04:56:58;4.07;;;1.35;;
50671;SDS011;46021;55.882;37.654;2022-09-09T04:59:25;3.58;;;1.58;;
50671;SDS011;46021;55.882;37.654;2022-09-09T05:01:54;2.58;;;1.30;;
50671;SDS011;46021;55.882;37.654;2022-09-09T05:04:21;3.80;;;1.17;;
50671;SDS011;46021;55.882;37.654;2022-09-09T05:06:48;1.47;;;1.10;;
50671;SDS011;46021;55.882;37.654;2022-09-09T05:09:14;2.47;;;1.30;;
50671;SDS011;46021;55.882;37.654;2022-09-09T05:11:43;4.10;;;1.30;;
50671;SDS011;46021;55.882;37.654;2022-09-09T05:14:35;3.38;;;1.15;;
50671;SDS011;46021;55.882;37.654;2022-09-09T05:17:03;1.70;;;1.17;;
50671;SDS011;46021;55.882;37.654;2022-09-09T05:19:31;2.25;;;1.30;;
50671;SDS011;46021;55.882;37.654;2022-09-09T05:21:58;2.67;;;1.10;;
50671;SDS011;46021;55.882;37.654;2022-09-09T05:24:33;2.38;;;1.10;;
50671;SDS011;46021;55.882;37.654;2022-09-09T05:27:02;2.53;;;1.25;;
50671;SDS011;46021;55.882;37.654;2022-09-09T05:29:29;1.92;;;0.95;;
50671;SDS011;46021;55.882;37.654;2022-09-09T05:32:00;1.30;;;0.90;;
50671;SDS011;46021;55.882;37.654;2022-09-09T05:34:27;1.90;;;1.20;;
50671;SDS011;46021;55.882;37.654;2022-09-09T05:36:54;9.38;;;1.23;;
50671;SDS011;46021;55.882;37.654;2022-09-09T05:39:22;2.05;;;1.20;;
50671;SDS011;46021;55.882;37.654;2022-09-09T05:41:49;4.10;;;1.00;;
50671;SDS011;46021;55.882;37.654;2022-09-09T05:44:16;7.32;;;3.50;;
50671;SDS011;46021;55.882;37.654;2022-09-09T05:46:45;5.68;;;2.88;;
50671;SDS011;46021;55.882;37.654;2022-09-09T05:49:13;4.88;;;1.70;;
50671;SDS011;46021;55.882;37.654;2022-09-09T05:51:41;5.03;;;1.65;;
50671;SDS011;46021;55.882;37.654;2022-09-09T05:54:11;2.80;;;1.65;;
50671;SDS011;46021;55.882;37.654;2022-09-09T05:56:42;2.83;;;1.60;;
50671;SDS011;46021;55.882;37.654;2022-09-09T05:59:09;3.20;;;1.40;;
50671;SDS011;46021;55.882;37.654;2022-09-09T06:01:38;3.05;;;1.60;;
50671;SDS011;46021;55.882;37.654;2022-09-09T06:04:08;3.28;;;1.35;;
50671;SDS011;46021;55.882;37.654;2022-09-09T06:06:36;3.47;;;1.55;;
50671;SDS011;46021;55.882;37.654;2022-09-09T06:09:17;3.90;;;1.45;;
50671;SDS011;46021;55.882;37.654;2022-09-09T06:11:43;4.45;;;2.00;;
50671;SDS011;46021;55.882;37.654;2022-09-09T06:14:12;3.58;;;1.40;;
50671;SDS011;46021;55.882;37.654;2022-09-09T06:16:40;1.95;;;1.30;;
50671;SDS011;46021;55.882;37.654;2022-09-09T06:19:29;2.30;;;1.30;;
50671;SDS011;46021;55.882;37.654;2022-09-09T06:21:58;3.47;;;1.85;;
50671;SDS011;46021;55.882;37.654;2022-09-09T06:24:26;7.22;;;1.42;;
50671;SDS011;46021;55.882;37.654;2022-09-09T06:26:55;3.08;;;1.40;;
50671;SDS011;46021;55.882;37.654;2022-09-09T06:29:26;2.88;;;1.52;;
50671;SDS011;46021;55.882;37.654;2022-09-09T06:31:53;1.70;;;1.10;;
50671;SDS011;46021;55.882;37.654;2022-09-09T06:34:22;1.50;;;1.02;;
50671;SDS011;46021;55.882;37.654;2022-09-09T06:36:56;4.05;;;1.30;;
50671;SDS011;46021;55.882;37.654;2022-09-09T06:39:25;4.38;;;1.50;;
50671;SDS011;46021;55.882;37.654;2022-09-09T06:41:52;3.20;;;1.35;;
50671;SDS011;46021;55.882;37.654;2022-09-09T06:44:39;2.15;;;1.40;;
50671;SDS011;46021;55.882;37.654;2022-09-09T06:47:09;11.48;;;1.40;;
50671;SDS011;46021;55.882;37.654;2022-09-09T06:49:37;2.47;;;1.38;;
50671;SDS011;46021;55.882;37.654;2022-09-09T06:52:07;2.42;;;1.13;;
50671;SDS011;46021;55.882;37.654;2022-09-09T06:54:35;1.80;;;1.10;;
50671;SDS011;46021;55.882;37.654;2022-09-09T06:57:03;2.25;;;1.13;;
50671;SDS011;46021;55.882;37.654;2022-09-09T06:59:32;3.92;;;1.10;;
50671;SDS011;46021;55.882;37.654;2022-09-09T07:01:59;3.15;;;0.77;;
50671;SDS011;46021;55.882;37.654;2022-09-09T07:04:27;2.28;;;1.15;;
50671;SDS011;46021;55.882;37.654;2022-09-09T07:06:54;4.05;;;1.40;;
50671;SDS011;46021;55.882;37.654;2022-09-09T07:09:23;3.05;;;1.10;;
50671;SDS011;46021;55.882;37.654;2022-09-09T07:11:52;2.25;;;1.15;;
50671;SDS011;46021;55.882;37.654;2022-09-09T07:14:20;3.17;;;0.80;;
50671;SDS011;46021;55.882;37.654;2022-09-09T07:16:53;1.30;;;0.80;;
50671;SDS011;46021;55.882;37.654;2022-09-09T07:19:20;9.18;;;1.30;;
50671;SDS011;46021;55.882;37.654;2022-09-09T07:21:50;1.50;;;0.90;;
50671;SDS011;46021;55.882;37.654;2022-09-09T07:24:19;1.70;;;0.80;;
50671;SDS011;46021;55.882;37.654;2022-09-09T07:26:46;1.40;;;0.70;;
50671;SDS011;46021;55.882;37.654;2022-09-09T07:29:13;5.10;;;1.00;;
50671;SDS011;46021;55.882;37.654;2022-09-09T07:31:41;4.55;;;1.10;;
50671;SDS011;46021;55.882;37.654;2022-09-09T07:34:16;2.38;;;1.00;;
50671;SDS011;46021;55.882;37.654;2022-09-09T07:36:44;6.78;;;0.90;;
50671;SDS011;46021;55.882;37.654;2022-09-09T07:41:43;4.25;;;0.70;;
50671;SDS011;46021;55.882;37.654;2022-09-09T07:44:14;4.97;;;0.88;;
50671;SDS011;46021;55.882;37.654;2022-09-09T07:46:44;1.23;;;0.57;;
50671;SDS011;46021;55.882;37.654;2022-09-09T07:49:15;2.67;;;0.70;;
50671;SDS011;46021;55.882;37.654;2022-09-09T07:51:42;2.75;;;0.70;;
50671;SDS011;46021;55.882;37.654;2022-09-09T07:54:13;1.45;;;0.80;;
50671;SDS011;46021;55.882;37.654;2022-09-09T07:56:43;3.92;;;0.90;;
50671;SDS011;46021;55.882;37.654;2022-09-09T07:59:11;1.80;;;0.70;;
50671;SDS011;46021;55.882;37.654;2022-09-09T08:01:42;1.35;;;0.70;;
50671;SDS011;46021;55.882;37.654;2022-09-09T08:04:13;2.08;;;0.75;;
50671;SDS011;46021;55.882;37.654;2022-09-09T08:06:43;7.07;;;0.77;;
50671;SDS011;46021;55.882;37.654;2022-09-09T08:09:12;1.63;;;0.70;;
50671;SDS011;46021;55.882;37.654;2022-09-09T08:11:41;4.93;;;0.80;;
50671;SDS011;46021;55.882;37.654;2022-09-09T08:14:09;2.78;;;0.70;;
50671;SDS011;46021;55.882;37.654;2022-09-09T08:16:37;1.95;;;0.90;;
50671;SDS011;46021;55.882;37.654;2022-09-09T08:19:08;3.65;;;0.90;;
50671;SDS011;46021;55.882;37.654;2022-09-09T08:24:03;1.10;;;0.70;;
50671;SDS011;46021;55.882;37.654;2022-09-09T08:26:31;1.58;;;0.68;;
50671;SDS011;46021;55.882;37.654;2022-09-09T08:29:01;0.75;;;0.60;;
50671;SDS011;46021;55.882;37.654;2022-09-09T08:31:29;1.90;;;0.70;;
50671;SDS011;46021;55.882;37.654;2022-09-09T08:33:59;1.17;;;0.63;;
50671;SDS011;46021;55.882;37.654;2022-09-09T08:36:30;2.42;;;0.80;;
50671;SDS011;46021;55.882;37.654;2022-09-09T08:38:59;0.95;;;0.70;;
50671;SDS011;46021;55.882;37.654;2022-09-09T08:44:12;1.40;;;0.85;;
50671;SDS011;46021;55.882;37.654;2022-09-09T08:46:47;1.67;;;0.90;;
50671;SDS011;46021;55.882;37.654;2022-09-09T08:49:35;1.67;;;0.80;;
50671;SDS011;46021;55.882;37.654;2022-09-09T08:52:27;0.52;;;0.50;;
50671;SDS011;46021;55.882;37.654;2022-09-09T08:54:56;0.82;;;0.50;;
50671;SDS011;46021;55.882;37.654;2022-09-09T08:57:29;5.13;;;0.75;;
50671;SDS011;46021;55.882;37.654;2022-09-09T08:59:58;4.10;;;0.95;;
50671;SDS011;46021;55.882;37.654;2022-09-09T09:02:25;1.50;;;0.60;;
50671;SDS011;46021;55.882;37.654;2022-09-09T09:05:11;1.20;;;0.70;;
50671;SDS011;46021;55.882;37.654;2022-09-09T09:07:49;1.67;;;0.50;;
50671;SDS011;46021;55.882;37.654;2022-09-09T09:10:34;1.15;;;0.70;;
50671;SDS011;46021;55.882;37.654;2022-09-09T09:13:17;1.17;;;0.60;;
50671;SDS011;46021;55.882;37.654;2022-09-09T09:15:46;2.20;;;0.60;;
50671;SDS011;46021;55.882;37.654;2022-09-09T09:18:18;3.60;;;0.70;;
50671;SDS011;46021;55.882;37.654;2022-09-09T09:20:48;4.47;;;1.37;;
50671;SDS011;46021;55.882;37.654;2022-09-09T09:23:29;1.25;;;0.70;;
50671;SDS011;46021;55.882;37.654;2022-09-09T09:26:06;2.83;;;0.60;;
50671;SDS011;46021;55.882;37.654;2022-09-09T09:28:35;0.85;;;0.60;;
50671;SDS011;46021;55.882;37.654;2022-09-09T09:31:10;2.17;;;0.60;;
50671;SDS011;46021;55.882;37.654;2022-09-09T09:33:43;4.32;;;1.10;;
50671;SDS011;46021;55.882;37.654;2022-09-09T09:36:15;2.35;;;0.90;;
50671;SDS011;46021;55.882;37.654;2022-09-09T09:38:55;2.78;;;0.90;;
50671;SDS011;46021;55.882;37.654;2022-09-09T09:41:30;2.00;;;0.60;;
50671;SDS011;46021;55.882;37.654;2022-09-09T09:43:59;1.00;;;0.63;;
50671;SDS011;46021;55.882;37.654;2022-09-09T09:46:27;1.15;;;0.75;;
50671;SDS011;46021;55.882;37.654;2022-09-09T09:49:03;0.85;;;0.60;;
50671;SDS011;46021;55.882;37.654;2022-09-09T09:51:32;2.20;;;0.70;;
50671;SDS011;46021;55.882;37.654;2022-09-09T09:56:54;3.80;;;0.68;;
50671;SDS011;46021;55.882;37.654;2022-09-09T09:59:23;1.58;;;0.60;;
50671;SDS011;46021;55.882;37.654;2022-09-09T10:02:13;1.67;;;0.60;;
50671;SDS011;46021;55.882;37.654;2022-09-09T10:04:43;1.70;;;0.55;;
50671;SDS011;46021;55.882;37.654;2022-09-09T10:07:12;0.43;;;0.30;;
50671;SDS011;46021;55.882;37.654;2022-09-09T10:09:43;0.40;;;0.40;;
50671;SDS011;46021;55.882;37.654;2022-09-09T10:12:14;2.17;;;1.10;;
50671;SDS011;46021;55.882;37.654;2022-09-09T10:14:53;1.65;;;0.57;;
50671;SDS011;46021;55.882;37.654;2022-09-09T10:17:30;1.70;;;0.82;;
50671;SDS011;46021;55.882;37.654;2022-09-09T10:20:14;1.30;;;0.80;;
50671;SDS011;46021;55.882;37.654;2022-09-09T10:22:50;1.20;;;0.60;;
50671;SDS011;46021;55.882;37.654;2022-09-09T10:28:08;1.67;;;0.50;;
50671;SDS011;46021;55.882;37.654;2022-09-09T10:33:26;6.47;;;0.90;;
50671;SDS011;46021;55.882;37.654;2022-09-09T10:36:00;1.63;;;0.70;;
50671;SDS011;46021;55.882;37.654;2022-09-09T10:38:39;0.90;;;0.60;;
50671;SDS011;46021;55.882;37.654;2022-09-09T10:41:15;1.58;;;0.60;;
50671;SDS011;46021;55.882;37.654;2022-09-09T10:43:56;1.65;;;0.50;;
50671;SDS011;46021;55.882;37.654;2022-09-09T10:46:40;1.38;;;0.80;;
50671;SDS011;46021;55.882;37.654;2022-09-09T10:49:20;1.60;;;0.90;;
50671;SDS011;46021;55.882;37.654;2022-09-09T10:51:57;0.80;;;0.50;;
50671;SDS011;46021;55.882;37.654;2022-09-09T10:54:36;1.83;;;0.80;;
50671;SDS011;46021;55.882;37.654;2022-09-09T10:57:18;1.95;;;0.90;;
50671;SDS011;46021;55.882;37.654;2022-09-09T10:59:56;2.55;;;1.17;;
50671;SDS011;46021;55.882;37.654;2022-09-09T11:02:31;4.22;;;0.90;;
50671;SDS011;46021;55.882;37.654;2022-09-09T11:05:00;1.40;;;0.80;;
50671;SDS011;46021;55.882;37.654;2022-09-09T11:07:32;3.15;;;1.13;;
50671;SDS011;46021;55.882;37.654;2022-09-09T11:10:04;1.65;;;0.80;;
50671;SDS011;46021;55.882;37.654;2022-09-09T11:12:42;3.67;;;0.75;;
50671;SDS011;46021;55.882;37.654;2022-09-09T11:15:16;2.20;;;0.70;;
50671;SDS011;46021;55.882;37.654;2022-09-09T11:17:47;1.95;;;0.65;;
50671;SDS011;46021;55.882;37.654;2022-09-09T11:20:19;3.05;;;1.52;;
50671;SDS011;46021;55.882;37.654;2022-09-09T11:22:47;1.58;;;0.65;;
50671;SDS011;46021;55.882;37.654;2022-09-09T11:25:17;1.85;;;0.82;;
50671;SDS011;46021;55.882;37.654;2022-09-09T11:27:56;3.30;;;1.10;;
50671;SDS011;46021;55.882;37.654;2022-09-09T11:36:34;1.15;;;0.65;;
50671;SDS011;46021;55.882;37.654;2022-09-09T11:39:27;2.38;;;1.05;;
50671;SDS011;46021;55.882;37.654;2022-09-09T11:42:16;5.97;;;1.00;;
50671;SDS011;46021;55.882;37.654;2022-09-09T11:44:46;4.90;;;0.80;;
50671;SDS011;46021;55.882;37.654;2022-09-09T11:47:19;1.58;;;0.80;;
50671;SDS011;46021;55.882;37.654;2022-09-09T11:49:51;2.35;;;0.68;;
50671;SDS011;46021;55.882;37.654;2022-09-09T11:52:23;2.38;;;0.90;;
50671;SDS011;46021;55.882;37.654;2022-09-09T11:55:08;1.48;;;0.70;;
50671;SDS011;46021;55.882;37.654;2022-09-09T11:57:37;1.10;;;0.73;;
50671;SDS011;46021;55.882;37.654;2022-09-09T12:00:06;6.00;;;1.20;;
50671;SDS011;46021;55.882;37.654;2022-09-09T12:02:53;2.35;;;1.17;;
50671;SDS011;46021;55.882;37.654;2022-09-09T12:05:19;2.00;;;0.82;;
50671;SDS011;46021;55.882;37.654;2022-09-09T12:10:19;1.85;;;0.68;;
50671;SDS011;46021;55.882;37.654;2022-09-09T12:12:49;1.60;;;0.70;;
50671;SDS011;46021;55.882;37.654;2022-09-09T12:15:18;1.75;;;0.70;;
50671;SDS011;46021;55.882;37.654;2022-09-09T12:17:48;1.42;;;0.70;;
50671;SDS011;46021;55.882;37.654;2022-09-09T12:20:16;3.40;;;0.70;;
50671;SDS011;46021;55.882;37.654;2022-09-09T12:23:11;2.55;;;0.60;;
50671;SDS011;46021;55.882;37.654;2022-09-09T12:25:54;1.23;;;0.70;;
50671;SDS011;46021;55.882;37.654;2022-09-09T12:28:39;1.63;;;0.80;;
50671;SDS011;46021;55.882;37.654;2022-09-09T12:31:16;2.50;;;1.08;;
50671;SDS011;46021;55.882;37.654;2022-09-09T12:33:48;1.33;;;0.80;;
50671;SDS011;46021;55.882;37.654;2022-09-09T12:36:18;1.02;;;0.75;;
50671;SDS011;46021;55.882;37.654;2022-09-09T12:38:47;2.20;;;0.90;;
50671;SDS011;46021;55.882;37.654;2022-09-09T12:41:18;2.75;;;1.08;;
50671;SDS011;46021;55.882;37.654;2022-09-09T12:43:46;5.65;;;1.00;;
50671;SDS011;46021;55.882;37.654;2022-09-09T12:46:17;4.53;;;1.30;;
50671;SDS011;46021;55.882;37.654;2022-09-09T12:48:51;1.83;;;1.20;;
50671;SDS011;46021;55.882;37.654;2022-09-09T12:51:21;3.67;;;1.38;;
50671;SDS011;46021;55.882;37.654;2022-09-09T12:53:51;4.43;;;1.13;;
50671;SDS011;46021;55.882;37.654;2022-09-09T12:56:19;2.20;;;1.00;;
50671;SDS011;46021;55.882;37.654;2022-09-09T12:58:47;1.88;;;1.05;;
50671;SDS011;46021;55.882;37.654;2022-09-09T13:01:21;5.00;;;1.20;;
50671;SDS011;46021;55.882;37.654;2022-09-09T13:03:50;1.73;;;1.00;;
50671;SDS011;46021;55.882;37.654;2022-09-09T13:06:21;8.20;;;1.63;;
50671;SDS011;46021;55.882;37.654;2022-09-09T13:09:00;3.97;;;0.90;;
50671;SDS011;46021;55.882;37.654;2022-09-09T13:11:29;6.97;;;0.90;;
50671;SDS011;46021;55.882;37.654;2022-09-09T13:14:03;4.13;;;0.73;;
50671;SDS011;46021;55.882;37.654;2022-09-09T13:18:59;4.25;;;0.93;;
50671;SDS011;46021;55.882;37.654;2022-09-09T13:21:31;1.77;;;0.75;;
50671;SDS011;46021;55.882;37.654;2022-09-09T13:24:01;2.45;;;0.85;;
50671;SDS011;46021;55.882;37.654;2022-09-09T13:26:29;2.22;;;1.05;;
50671;SDS011;46021;55.882;37.654;2022-09-09T13:29:07;2.23;;;1.30;;
50671;SDS011;46021;55.882;37.654;2022-09-09T13:31:40;2.13;;;1.05;;
50671;SDS011;46021;55.882;37.654;2022-09-09T13:34:10;2.20;;;0.98;;
50671;SDS011;46021;55.882;37.654;2022-09-09T13:36:38;1.95;;;0.85;;
50671;SDS011;46021;55.882;37.654;2022-09-09T13:39:13;1.52;;;0.75;;
50671;SDS011;46021;55.882;37.654;2022-09-09T13:41:43;4.72;;;1.02;;
50671;SDS011;46021;55.882;37.654;2022-09-09T13:44:14;1.67;;;1.08;;
50671;SDS011;46021;55.882;37.654;2022-09-09T13:46:46;3.38;;;1.33;;
50671;SDS011;46021;55.882;37.654;2022-09-09T13:49:19;1.67;;;1.20;;
50671;SDS011;46021;55.882;37.654;2022-09-09T13:51:47;3.28;;;1.25;;
50671;SDS011;46021;55.882;37.654;2022-09-09T13:54:17;4.25;;;1.33;;
50671;SDS011;46021;55.882;37.654;2022-09-09T13:56:44;3.08;;;1.70;;
50671;SDS011;46021;55.882;37.654;2022-09-09T13:59:12;2.60;;;1.20;;
50671;SDS011;46021;55.882;37.654;2022-09-09T14:01:39;4.65;;;1.65;;
50671;SDS011;46021;55.882;37.654;2022-09-09T14:04:07;2.37;;;1.10;;
50671;SDS011;46021;55.882;37.654;2022-09-09T14:09:02;2.20;;;1.08;;
50671;SDS011;46021;55.882;37.654;2022-09-09T14:11:29;5.40;;;1.23;;
50671;SDS011;46021;55.882;37.654;2022-09-09T14:13:55;2.20;;;1.05;;
50671;SDS011;46021;55.882;37.654;2022-09-09T14:16:22;4.28;;;1.20;;
50671;SDS011;46021;55.882;37.654;2022-09-09T14:18:53;2.80;;;0.98;;
50671;SDS011;46021;55.882;37.654;2022-09-09T14:21:22;2.35;;;1.33;;
50671;SDS011;46021;55.882;37.654;2022-09-09T14:23:49;4.47;;;1.17;;
50671;SDS011;46021;55.882;37.654;2022-09-09T14:26:16;2.85;;;1.10;;
50671;SDS011;46021;55.882;37.654;2022-09-09T14:28:45;3.50;;;1.02;;
50671;SDS011;46021;55.882;37.654;2022-09-09T14:31:13;2.42;;;1.00;;
50671;SDS011;46021;55.882;37.654;2022-09-09T14:33:39;3.25;;;1.00;;
50671;SDS011;46021;55.882;37.654;2022-09-09T14:36:06;4.90;;;1.10;;
50671;SDS011;46021;55.882;37.654;2022-09-09T14:38:35;4.50;;;1.20;;
50671;SDS011;46021;55.882;37.654;2022-09-09T14:41:04;3.00;;;1.00;;
50671;SDS011;46021;55.882;37.654;2022-09-09T14:43:31;1.83;;;1.02;;
50671;SDS011;46021;55.882;37.654;2022-09-09T14:46:04;2.88;;;1.00;;
50671;SDS011;46021;55.882;37.654;2022-09-09T14:48:31;4.63;;;1.08;;
50671;SDS011;46021;55.882;37.654;2022-09-09T14:51:04;2.35;;;1.10;;
50671;SDS011;46021;55.882;37.654;2022-09-09T14:53:31;1.73;;;0.95;;
50671;SDS011;46021;55.882;37.654;2022-09-09T14:56:03;2.58;;;1.20;;
50671;SDS011;46021;55.882;37.654;2022-09-09T14:58:31;4.55;;;1.50;;
50671;SDS011;46021;55.882;37.654;2022-09-09T15:01:01;5.32;;;1.48;;
50671;SDS011;46021;55.882;37.654;2022-09-09T15:03:29;4.43;;;1.48;;
50671;SDS011;46021;55.882;37.654;2022-09-09T15:05:56;4.20;;;1.42;;
50671;SDS011;46021;55.882;37.654;2022-09-09T15:08:24;4.25;;;1.55;;
50671;SDS011;46021;55.882;37.654;2022-09-09T15:10:58;5.80;;;1.98;;
50671;SDS011;46021;55.882;37.654;2022-09-09T15:13:26;5.85;;;1.58;;
50671;SDS011;46021;55.882;37.654;2022-09-09T15:15:53;3.00;;;1.45;;
50671;SDS011;46021;55.882;37.654;2022-09-09T15:18:20;2.67;;;1.30;;
50671;SDS011;46021;55.882;37.654;2022-09-09T15:20:47;3.90;;;1.70;;
50671;SDS011;46021;55.882;37.654;2022-09-09T15:23:13;4.78;;;1.85;;
50671;SDS011;46021;55.882;37.654;2022-09-09T15:25:49;11.95;;;2.35;;
50671;SDS011;46021;55.882;37.654;2022-09-09T15:28:17;5.55;;;1.50;;
50671;SDS011;46021;55.882;37.654;2022-09-09T15:30:47;4.28;;;1.58;;
50671;SDS011;46021;55.882;37.654;2022-09-09T15:33:15;5.45;;;1.92;;